Time;durP1;ratioP1;P1;durP2;ratioP2;P2;SDS_P1;SDS_P2;PMS_P1;PMS_P2;Temp;Humidity;BMP_temperature;BMP_pressure;BME280_temperature;BME280_humidity;BME280_pressure;Samples;Min_cycle;Max_cycle;Signal;HPM_P1;HPM_P2
2023/12/02 00:00:20;;;;;;;6.07;2.77;;;21.70;68.20;;;;;;5026974;28;20469;-64
2023/12/02 00:02:47;;;;;;;2.30;2.10;;;21.60;68.10;;;;;;5025582;28;20454;-64
2023/12/02 00:05:13;;;;;;;2.50;2.30;;;21.60;68.10;;;;;;5024415;28;20469;-64
2023/12/02 00:07:40;;;;;;;3.17;2.57;;;21.70;68.30;;;;;;5026312;28;20469;-64
2023/12/02 00:10:08;;;;;;;2.43;2.23;;;21.60;68.10;;;;;;5023886;28;20970;-63
2023/12/02 00:12:35;;;;;;;2.77;2.57;;;21.60;68.10;;;;;;5029388;28;20468;-63
2023/12/02 00:15:04;;;;;;;2.23;2.03;;;21.60;68.10;;;;;;5023567;28;21025;-65
2023/12/02 00:17:31;;;;;;;2.13;1.93;;;21.60;68.10;;;;;;5027732;28;20462;-64
2023/12/02 00:19:58;;;;;;;2.40;2.20;;;21.60;68.10;;;;;;5013635;28;20969;-63
2023/12/02 00:22:24;;;;;;;2.80;2.40;;;21.60;68.10;;;;;;5019098;28;20457;-62
2023/12/02 00:24:51;;;;;;;2.70;2.50;;;21.60;68.20;;;;;;5025624;28;20210;-62
2023/12/02 00:27:18;;;;;;;2.30;2.10;;;21.60;68.20;;;;;;5023504;28;20223;-62
2023/12/02 00:29:45;;;;;;;3.40;2.40;;;21.60;68.10;;;;;;5021074;28;20462;-62
2023/12/02 00:32:13;;;;;;;2.80;2.57;;;21.60;68.10;;;;;;5020815;28;20465;-62
2023/12/02 00:34:40;;;;;;;3.07;2.10;;;21.60;68.10;;;;;;5017943;28;20464;-62
2023/12/02 00:37:07;;;;;;;2.63;2.00;;;21.50;68.10;;;;;;5022054;28;20462;-62
2023/12/02 00:39:33;;;;;;;2.90;2.30;;;21.60;68.20;;;;;;5024827;28;20469;-62
2023/12/02 00:42:00;;;;;;;2.30;2.10;;;21.50;68.90;;;;;;5032266;28;20458;-62
2023/12/02 00:44:27;;;;;;;2.40;2.20;;;21.50;68.20;;;;;;5028255;28;20454;-63
2023/12/02 00:46:53;;;;;;;2.27;2.10;;;21.50;68.20;;;;;;5026241;28;20454;-62
2023/12/02 00:49:22;;;;;;;2.63;2.43;;;21.50;68.10;;;;;;5028857;28;20445;-62
2023/12/02 00:51:49;;;;;;;2.63;2.20;;;21.50;68.20;;;;;;5028177;28;21434;-62
2023/12/02 00:54:15;;;;;;;2.50;2.30;;;21.50;68.20;;;;;;5027062;28;20452;-63
2023/12/02 00:56:42;;;;;;;2.23;2.03;;;21.50;68.20;;;;;;5024967;28;20482;-63
2023/12/02 00:59:09;;;;;;;2.30;2.07;;;21.50;68.30;;;;;;5035037;28;20457;-61
2023/12/02 01:01:35;;;;;;;2.30;2.10;;;21.50;68.20;;;;;;5026436;28;20993;-62
2023/12/02 01:04:02;;;;;;;2.87;2.20;;;21.50;68.20;;;;;;5030563;28;20497;-62
2023/12/02 01:06:30;;;;;;;2.37;1.80;;;21.50;68.20;;;;;;5023208;28;20494;-62
2023/12/02 01:08:57;;;;;;;2.87;2.10;;;21.50;69.10;;;;;;5027331;28;20457;-62
2023/12/02 01:11:24;;;;;;;2.73;2.53;;;21.50;68.20;;;;;;5027245;28;21044;-62
2023/12/02 01:13:51;;;;;;;2.40;2.20;;;21.50;68.20;;;;;;5031558;28;20454;-63
2023/12/02 01:16:18;;;;;;;3.57;2.90;;;21.50;68.30;;;;;;5024944;28;20509;-63
2023/12/02 01:18:44;;;;;;;2.13;1.87;;;21.50;68.20;;;;;;5022040;28;20465;-63
2023/12/02 01:21:11;;;;;;;2.80;2.10;;;21.40;68.00;;;;;;5026060;28;20491;-62
2023/12/02 01:23:39;;;;;;;3.47;2.50;;;21.50;68.90;;;;;;5022185;28;20459;-62
2023/12/02 01:26:06;;;;;;;2.90;2.60;;;21.40;68.10;;;;;;5031144;28;20458;-61
2023/12/02 01:28:33;;;;;;;2.20;2.00;;;21.40;68.10;;;;;;5031714;28;20472;-62
2023/12/02 01:31:00;;;;;;;2.30;2.10;;;21.40;68.10;;;;;;5032145;28;20465;-63
2023/12/02 01:33:26;;;;;;;2.37;2.17;;;21.50;68.20;;;;;;5032314;28;20461;-63
2023/12/02 01:35:53;;;;;;;2.40;2.10;;;21.40;68.10;;;;;;5032413;28;20489;-63
2023/12/02 01:38:20;;;;;;;2.57;2.23;;;21.40;68.10;;;;;;5026686;28;20457;-62
2023/12/02 01:40:48;;;;;;;2.20;1.73;;;21.40;68.10;;;;;;5026490;28;20468;-62
2023/12/02 01:43:24;;;;;;;2.30;2.03;;;21.40;68.10;;;;;;5031097;28;20453;-63
2023/12/02 01:45:51;;;;;;;2.57;2.20;;;21.40;68.10;;;;;;5026070;28;20536;-61
2023/12/02 01:48:19;;;;;;;1.70;1.60;;;21.40;68.20;;;;;;5027267;28;20981;-63
2023/12/02 01:50:47;;;;;;;2.73;2.27;;;21.40;68.20;;;;;;5028344;28;20454;-62
2023/12/02 01:53:13;;;;;;;2.60;2.40;;;21.40;68.30;;;;;;5026988;28;20465;-63
2023/12/02 01:55:40;;;;;;;2.27;2.07;;;21.40;68.30;;;;;;5030331;28;20963;-62
2023/12/02 01:58:08;;;;;;;1.77;1.63;;;21.40;68.20;;;;;;5025404;28;20846;-61
2023/12/02 02:00:35;;;;;;;3.60;2.23;;;21.40;68.20;;;;;;5028232;28;20466;-63
2023/12/02 02:03:02;;;;;;;2.10;1.83;;;21.40;68.30;;;;;;5023266;28;20537;-62
2023/12/02 02:05:28;;;;;;;2.20;2.00;;;21.40;68.20;;;;;;5020601;28;20478;-62
2023/12/02 02:07:55;;;;;;;1.73;1.63;;;21.40;68.10;;;;;;5018857;28;20463;-62
2023/12/02 02:10:22;;;;;;;2.40;2.20;;;21.40;68.20;;;;;;5015861;28;20450;-62
2023/12/02 02:12:49;;;;;;;2.42;1.73;;;21.40;68.20;;;;;;5023748;28;20977;-63
2023/12/02 02:15:17;;;;;;;1.93;1.80;;;21.40;68.10;;;;;;5022798;28;20729;-62
2023/12/02 02:17:44;;;;;;;2.55;2.17;;;21.40;68.10;;;;;;5022802;28;20455;-63
2023/12/02 02:20:11;;;;;;;2.20;1.73;;;21.40;68.10;;;;;;5020440;28;20199;-63
2023/12/02 02:22:39;;;;;;;2.50;2.30;;;21.40;68.20;;;;;;5021326;28;20496;-62
2023/12/02 02:25:06;;;;;;;2.25;2.05;;;21.40;68.20;;;;;;5020171;28;20970;-62
2023/12/02 02:27:33;;;;;;;2.03;1.80;;;21.40;68.20;;;;;;5023174;28;20261;-62
2023/12/02 02:30:00;;;;;;;2.93;1.90;;;21.40;68.20;;;;;;5021857;28;20202;-63
2023/12/02 02:32:27;;;;;;;2.03;1.80;;;21.40;68.20;;;;;;5019074;28;20465;-62
2023/12/02 02:34:53;;;;;;;2.13;1.93;;;21.40;68.10;;;;;;5017496;28;20469;-62
2023/12/02 02:37:20;;;;;;;2.80;1.87;;;21.40;68.20;;;;;;5021632;28;21038;-62
2023/12/02 02:39:48;;;;;;;2.15;1.75;;;21.40;68.10;;;;;;5023493;28;20461;-63
2023/12/02 02:42:15;;;;;;;2.35;2.15;;;21.40;68.10;;;;;;5024264;28;20204;-63
2023/12/02 02:44:42;;;;;;;2.10;1.92;;;21.30;68.00;;;;;;5023573;28;20335;-62
2023/12/02 02:47:08;;;;;;;2.00;1.90;;;21.40;68.10;;;;;;5027606;28;21162;-62
2023/12/02 02:49:35;;;;;;;3.13;2.10;;;21.40;68.10;;;;;;5022851;28;20461;-63
2023/12/02 02:52:03;;;;;;;2.03;1.77;;;21.40;68.10;;;;;;5026090;28;20209;-62
2023/12/02 02:54:29;;;;;;;3.07;2.10;;;21.30;68.00;;;;;;5025030;28;20601;-63
2023/12/02 02:56:57;;;;;;;1.90;1.80;;;21.40;68.10;;;;;;5027646;28;20496;-62
2023/12/02 02:59:24;;;;;;;1.70;1.60;;;21.40;68.10;;;;;;5023068;28;20458;-62
2023/12/02 03:01:51;;;;;;;2.40;1.53;;;21.30;68.00;;;;;;5024337;28;20472;-62
2023/12/02 03:04:18;;;;;;;2.07;1.97;;;21.30;68.00;;;;;;5015109;28;21229;-62
2023/12/02 03:06:44;;;;;;;2.33;1.40;;;21.30;68.10;;;;;;5027344;28;20492;-62
2023/12/02 03:09:12;;;;;;;2.63;2.13;;;21.30;68.10;;;;;;5021727;28;20468;-62
2023/12/02 03:11:39;;;;;;;1.80;1.67;;;21.30;68.00;;;;;;5029444;28;21315;-62
2023/12/02 03:14:07;;;;;;;2.10;1.90;;;21.30;68.00;;;;;;5029200;28;20466;-62
2023/12/02 03:16:34;;;;;;;2.65;1.65;;;21.40;68.10;;;;;;5025061;28;20571;-62
2023/12/02 03:19:01;;;;;;;1.80;1.60;;;21.30;68.10;;;;;;5025189;28;20195;-62
2023/12/02 03:21:28;;;;;;;2.10;1.90;;;21.30;68.00;;;;;;5027120;28;20508;-62
2023/12/02 03:23:55;;;;;;;1.65;1.45;;;21.30;68.00;;;;;;5023675;28;20473;-63
2023/12/02 03:26:23;;;;;;;1.73;1.63;;;21.30;68.00;;;;;;5027009;28;20230;-62
2023/12/02 03:28:50;;;;;;;2.45;1.75;;;21.30;68.10;;;;;;5026049;28;20659;-62
2023/12/02 03:31:18;;;;;;;1.97;1.87;;;21.30;68.10;;;;;;5025388;28;20206;-62
2023/12/02 03:33:45;;;;;;;2.23;2.03;;;21.30;68.00;;;;;;5027994;28;20547;-62
2023/12/02 03:36:12;;;;;;;2.03;1.70;;;21.30;68.10;;;;;;5027441;28;20480;-62
2023/12/02 03:38:40;;;;;;;2.33;1.63;;;21.30;68.00;;;;;;5024457;28;20557;-62
2023/12/02 03:41:08;;;;;;;2.00;1.63;;;21.30;68.00;;;;;;5025543;28;20458;-63
2023/12/02 03:43:35;;;;;;;1.60;1.40;;;21.30;68.10;;;;;;5025451;28;20460;-62
2023/12/02 03:46:02;;;;;;;2.87;1.67;;;21.30;68.10;;;;;;5027676;28;20473;-63
2023/12/02 03:48:31;;;;;;;1.70;1.60;;;21.30;68.00;;;;;;5019570;28;20478;-62
2023/12/02 03:50:58;;;;;;;2.10;1.90;;;21.30;68.10;;;;;;5031410;28;20188;-62
2023/12/02 03:53:25;;;;;;;2.70;2.13;;;21.30;68.10;;;;;;5023844;28;21009;-62
2023/12/02 03:55:53;;;;;;;1.70;1.60;;;21.30;68.10;;;;;;5027707;28;20819;-63
2023/12/02 03:58:20;;;;;;;1.87;1.77;;;21.30;68.10;;;;;;5025464;28;21227;-62
2023/12/02 04:00:46;;;;;;;2.30;1.67;;;21.30;68.10;;;;;;5027718;28;20441;-62
2023/12/02 04:03:13;;;;;;;2.08;1.65;;;21.20;68.00;;;;;;5021548;28;20197;-63
2023/12/02 04:05:44;;;;;;;1.63;1.52;;;21.30;69.00;;;;;;5024546;28;20212;-63
2023/12/02 04:08:10;;;;;;;1.47;1.37;;;21.30;68.20;;;;;;5021297;28;20195;-61
2023/12/02 04:10:37;;;;;;;1.73;1.63;;;21.30;68.10;;;;;;5025720;28;20962;-63
2023/12/02 04:13:05;;;;;;;1.60;1.40;;;21.30;68.10;;;;;;5021819;28;20247;-62
2023/12/02 04:15:32;;;;;;;1.30;1.20;;;21.20;68.00;;;;;;5028881;28;20512;-63
2023/12/02 04:17:59;;;;;;;1.42;1.33;;;21.30;68.10;;;;;;5029928;28;20486;-62
2023/12/02 04:20:25;;;;;;;2.87;1.67;;;21.30;68.10;;;;;;5028923;28;20203;-63
2023/12/02 04:22:54;;;;;;;1.70;1.37;;;21.30;68.10;;;;;;5030516;28;20484;-61
2023/12/02 04:25:21;;;;;;;1.85;1.55;;;21.20;68.00;;;;;;5026061;28;20453;-62
2023/12/02 04:27:47;;;;;;;1.63;1.53;;;21.40;68.20;;;;;;5031195;28;20663;-63
2023/12/02 04:30:14;;;;;;;2.10;1.87;;;21.30;68.10;;;;;;5031932;28;20457;-62
2023/12/02 04:32:41;;;;;;;1.70;1.60;;;21.30;68.10;;;;;;5030663;28;20452;-63
2023/12/02 04:35:09;;;;;;;1.70;1.40;;;21.30;68.60;;;;;;5030271;28;20458;-61
2023/12/02 04:37:35;;;;;;;1.90;1.80;;;21.30;68.10;;;;;;5029808;28;20477;-63
2023/12/02 04:40:10;;;;;;;1.70;1.60;;;21.20;68.10;;;;;;5025670;28;20472;-62
2023/12/02 04:42:37;;;;;;;1.60;1.50;;;21.20;68.00;;;;;;5029688;28;20558;-63
2023/12/02 04:45:05;;;;;;;1.63;1.53;;;21.30;68.20;;;;;;5031434;28;20466;-63
2023/12/02 04:47:32;;;;;;;1.60;1.50;;;21.30;68.10;;;;;;5026845;28;20619;-62
2023/12/02 04:49:59;;;;;;;1.60;1.37;;;21.30;68.20;;;;;;5031038;28;20464;-62
2023/12/02 04:52:25;;;;;;;1.77;1.67;;;21.20;68.10;;;;;;5025428;28;20462;-63
2023/12/02 04:54:52;;;;;;;1.40;1.30;;;21.30;68.20;;;;;;5027522;28;20465;-63
2023/12/02 04:57:20;;;;;;;1.63;1.43;;;21.20;68.00;;;;;;5031260;28;20474;-62
2023/12/02 04:59:47;;;;;;;1.70;1.40;;;21.20;68.10;;;;;;5030254;28;20491;-63
2023/12/02 05:02:14;;;;;;;1.70;1.30;;;21.30;68.20;;;;;;5027865;28;20462;-62
2023/12/02 05:04:40;;;;;;;1.37;1.27;;;21.20;68.10;;;;;;5028449;28;20203;-62
2023/12/02 05:07:07;;;;;;;1.73;1.63;;;21.20;68.00;;;;;;5031864;28;20459;-62
2023/12/02 05:09:34;;;;;;;1.50;1.40;;;21.20;68.00;;;;;;5031430;28;20464;-62
2023/12/02 05:12:01;;;;;;;1.87;1.53;;;21.20;68.10;;;;;;5033988;28;20485;-62
2023/12/02 05:14:29;;;;;;;1.40;1.10;;;21.20;68.20;;;;;;5026300;28;20461;-62
2023/12/02 05:16:55;;;;;;;1.45;1.17;;;21.20;68.00;;;;;;5025547;28;20986;-63
2023/12/02 05:19:22;;;;;;;2.00;1.63;;;21.20;68.10;;;;;;5020578;28;20206;-62
2023/12/02 05:21:49;;;;;;;1.50;1.40;;;21.20;68.10;;;;;;5027214;28;20434;-62
2023/12/02 05:24:19;;;;;;;1.40;1.30;;;21.20;68.10;;;;;;5028543;28;20195;-62
2023/12/02 05:26:46;;;;;;;1.53;1.37;;;21.20;68.10;;;;;;5027618;28;20478;-62
2023/12/02 05:29:13;;;;;;;1.80;1.70;;;21.20;68.10;;;;;;5027947;28;20492;-61
2023/12/02 05:31:41;;;;;;;1.90;1.50;;;21.30;68.20;;;;;;5028136;28;20467;-62
2023/12/02 05:34:07;;;;;;;1.50;1.30;;;21.20;68.10;;;;;;5026277;28;20199;-62
2023/12/02 05:36:34;;;;;;;1.58;1.35;;;21.20;68.00;;;;;;5026656;28;20481;-63
2023/12/02 05:39:01;;;;;;;1.80;1.40;;;21.20;68.10;;;;;;5026529;28;20222;-61
2023/12/02 05:41:28;;;;;;;1.85;1.45;;;21.20;68.20;;;;;;5028143;28;20488;-62
2023/12/02 05:43:55;;;;;;;1.60;1.50;;;21.20;68.10;;;;;;5030034;28;20206;-62
2023/12/02 05:46:22;;;;;;;1.60;1.50;;;21.20;68.20;;;;;;5026408;28;20205;-63
2023/12/02 05:48:49;;;;;;;3.00;1.50;;;21.20;68.20;;;;;;5019183;28;20795;-62
2023/12/02 05:51:15;;;;;;;1.42;1.30;;;21.20;68.10;;;;;;5026838;28;20877;-62
2023/12/02 05:53:42;;;;;;;1.48;1.38;;;21.20;68.20;;;;;;5022098;28;20635;-62
2023/12/02 05:56:09;;;;;;;1.50;1.30;;;21.20;68.20;;;;;;5028793;28;20200;-62
2023/12/02 05:58:36;;;;;;;1.83;1.48;;;21.20;68.20;;;;;;5026492;28;20480;-63
2023/12/02 06:01:03;;;;;;;1.50;1.40;;;21.20;68.10;;;;;;5026068;28;20200;-62
2023/12/02 06:03:30;;;;;;;1.40;1.30;;;21.20;68.10;;;;;;5024358;28;20460;-62
2023/12/02 06:05:58;;;;;;;1.70;1.60;;;21.20;68.20;;;;;;5028921;28;20457;-62
2023/12/02 06:08:25;;;;;;;1.60;1.47;;;21.20;68.20;;;;;;5024936;28;20874;-63
2023/12/02 06:10:51;;;;;;;2.17;1.57;;;21.20;68.10;;;;;;5030428;28;20473;-62
2023/12/02 06:13:18;;;;;;;1.75;1.63;;;21.20;68.20;;;;;;5029004;28;20441;-63
2023/12/02 06:15:45;;;;;;;1.50;1.40;;;21.20;68.10;;;;;;5031350;28;20202;-62
2023/12/02 06:18:11;;;;;;;1.40;1.20;;;21.20;68.10;;;;;;5030325;28;20615;-62
2023/12/02 06:20:38;;;;;;;1.73;1.55;;;21.20;68.10;;;;;;5030728;28;20219;-62
2023/12/02 06:23:06;;;;;;;1.35;1.20;;;21.20;68.20;;;;;;5027286;28;20215;-62
2023/12/02 06:25:33;;;;;;;1.75;1.38;;;21.20;68.10;;;;;;5027407;28;20192;-62
2023/12/02 06:28:00;;;;;;;1.53;1.43;;;21.20;68.10;;;;;;5023517;28;20221;-62
2023/12/02 06:30:26;;;;;;;1.23;1.13;;;21.20;68.10;;;;;;5025886;28;20496;-62
2023/12/02 06:32:53;;;;;;;1.40;1.30;;;21.20;68.10;;;;;;5029878;28;20457;-63
2023/12/02 06:35:20;;;;;;;1.60;1.50;;;21.20;68.20;;;;;;5026108;28;20207;-62
2023/12/02 06:37:46;;;;;;;1.60;1.40;;;21.20;68.20;;;;;;5021154;28;20223;-62
2023/12/02 06:40:15;;;;;;;1.92;1.40;;;21.20;68.20;;;;;;5022334;28;20204;-62
2023/12/02 06:42:42;;;;;;;1.70;1.50;;;21.20;68.20;;;;;;5027018;28;20195;-62
2023/12/02 06:45:09;;;;;;;1.98;1.40;;;21.30;68.20;;;;;;5028312;28;20215;-62
2023/12/02 06:47:36;;;;;;;1.60;1.50;;;21.20;68.10;;;;;;5026778;28;20204;-62
2023/12/02 06:50:04;;;;;;;1.50;1.40;;;21.20;68.10;;;;;;5030133;28;20194;-62
2023/12/02 06:52:31;;;;;;;1.35;1.17;;;21.20;68.10;;;;;;5023437;28;20199;-62
2023/12/02 06:54:57;;;;;;;2.27;1.67;;;21.20;68.30;;;;;;5031465;28;20215;-62
2023/12/02 06:57:25;;;;;;;1.35;1.20;;;21.20;68.30;;;;;;5026416;28;20484;-62
2023/12/02 06:59:52;;;;;;;1.63;1.35;;;21.10;68.20;;;;;;5025382;28;20191;-62
2023/12/02 07:02:19;;;;;;;1.42;1.17;;;21.20;68.20;;;;;;5023567;28;20195;-62
2023/12/02 07:04:46;;;;;;;1.30;1.20;;;21.10;68.10;;;;;;5028564;28;20212;-62
2023/12/02 07:07:13;;;;;;;1.90;1.50;;;21.20;68.20;;;;;;5029138;28;20867;-62
2023/12/02 07:09:39;;;;;;;1.33;1.23;;;21.20;68.10;;;;;;5024586;28;20203;-63
2023/12/02 07:12:07;;;;;;;3.40;1.15;;;21.10;68.00;;;;;;5026669;28;20198;-62
2023/12/02 07:14:35;;;;;;;1.10;1.00;;;21.10;68.00;;;;;;5025108;28;20203;-62
2023/12/02 07:17:03;;;;;;;1.20;1.10;;;21.10;68.90;;;;;;5018390;28;21138;-61
2023/12/02 07:19:30;;;;;;;1.20;1.10;;;21.10;68.10;;;;;;5022395;28;20233;-63
2023/12/02 07:21:57;;;;;;;1.75;1.20;;;21.10;68.10;;;;;;5020543;28;20197;-62
2023/12/02 07:24:23;;;;;;;1.27;1.17;;;21.10;68.10;;;;;;5026150;28;20206;-62
2023/12/02 07:26:50;;;;;;;1.60;1.35;;;21.10;68.10;;;;;;5029335;28;20222;-62
2023/12/02 07:29:17;;;;;;;1.27;1.17;;;21.10;68.20;;;;;;5026936;28;20677;-62
2023/12/02 07:31:46;;;;;;;1.60;1.20;;;21.10;68.20;;;;;;5023821;28;20198;-63
2023/12/02 07:34:13;;;;;;;1.20;1.10;;;21.10;68.10;;;;;;5029251;28;20467;-62
2023/12/02 07:36:39;;;;;;;2.75;1.33;;;21.10;68.20;;;;;;5024418;28;20192;-62
2023/12/02 07:39:07;;;;;;;1.30;1.20;;;21.10;68.20;;;;;;5021685;28;20922;-63
2023/12/02 07:41:33;;;;;;;1.38;1.25;;;21.10;68.30;;;;;;5025696;28;20448;-63
2023/12/02 07:44:00;;;;;;;1.50;1.40;;;21.10;68.70;;;;;;5026804;28;20219;-62
2023/12/02 07:46:27;;;;;;;1.25;1.05;;;21.20;68.40;;;;;;5019927;28;20464;-62
2023/12/02 07:48:55;;;;;;;1.50;1.40;;;21.20;68.50;;;;;;5021090;28;20206;-62
2023/12/02 07:51:22;;;;;;;1.30;1.20;;;21.20;68.30;;;;;;5030595;28;20215;-63
2023/12/02 07:53:49;;;;;;;1.33;1.20;;;21.20;68.40;;;;;;5024761;28;20487;-62
2023/12/02 07:56:17;;;;;;;1.20;1.02;;;21.20;68.30;;;;;;5031557;28;20505;-62
2023/12/02 07:58:44;;;;;;;1.52;1.42;;;21.20;68.40;;;;;;5032834;28;20222;-62
2023/12/02 08:01:10;;;;;;;1.60;1.00;;;21.20;68.30;;;;;;5024979;28;20910;-62
2023/12/02 08:03:37;;;;;;;1.50;1.20;;;21.20;68.20;;;;;;5025400;28;20215;-62
2023/12/02 08:06:06;;;;;;;1.45;1.30;;;21.20;68.30;;;;;;5029264;28;20723;-62
2023/12/02 08:08:32;;;;;;;1.30;1.13;;;21.20;68.30;;;;;;5026410;28;20204;-62
2023/12/02 08:10:59;;;;;;;1.33;1.23;;;21.20;68.20;;;;;;5029466;28;20215;-62
2023/12/02 08:13:26;;;;;;;7.28;2.15;;;21.20;68.30;;;;;;5023850;28;20201;-63
2023/12/02 08:15:53;;;;;;;1.70;1.48;;;21.20;68.60;;;;;;5032524;28;20328;-63
2023/12/02 08:18:21;;;;;;;1.40;1.30;;;21.20;68.60;;;;;;5025327;28;20222;-63
2023/12/02 08:20:47;;;;;;;6.70;1.42;;;21.20;68.60;;;;;;5029278;28;20495;-62
2023/12/02 08:23:15;;;;;;;1.30;1.07;;;21.20;68.60;;;;;;5030818;28;20222;-63
2023/12/02 08:25:42;;;;;;;1.48;1.08;;;21.20;68.50;;;;;;5029807;28;20518;-63
2023/12/02 08:28:09;;;;;;;1.27;1.17;;;21.20;68.50;;;;;;5026775;28;20205;-63
2023/12/02 08:30:36;;;;;;;2.28;1.10;;;21.20;68.50;;;;;;5028538;28;20983;-63
2023/12/02 08:33:03;;;;;;;2.55;1.20;;;21.20;68.50;;;;;;5028127;28;20199;-63
2023/12/02 08:35:31;;;;;;;1.45;1.10;;;21.20;68.50;;;;;;5029957;28;20283;-63
2023/12/02 08:37:58;;;;;;;1.57;1.20;;;21.20;68.40;;;;;;5027139;28;20227;-63
2023/12/02 08:40:26;;;;;;;1.40;1.30;;;21.20;68.50;;;;;;5025697;28;21040;-63
2023/12/02 08:42:53;;;;;;;1.10;1.00;;;21.20;68.50;;;;;;5027992;28;20462;-62
2023/12/02 08:45:20;;;;;;;1.15;1.05;;;21.20;68.50;;;;;;5021142;28;20443;-63
2023/12/02 08:47:46;;;;;;;1.30;1.17;;;21.20;68.60;;;;;;5023878;28;20203;-63
2023/12/02 08:50:13;;;;;;;1.17;1.07;;;21.20;68.50;;;;;;5031036;28;20891;-63
2023/12/02 08:52:40;;;;;;;1.60;1.10;;;21.20;68.50;;;;;;5026756;28;20826;-63
2023/12/02 08:55:07;;;;;;;1.10;0.80;;;21.20;68.60;;;;;;5028770;28;20561;-63
2023/12/02 08:57:35;;;;;;;1.43;1.33;;;21.20;68.50;;;;;;5023055;28;20909;-63
2023/12/02 09:00:04;;;;;;;1.17;1.03;;;21.20;68.60;;;;;;5021981;28;20484;-63
2023/12/02 09:02:31;;;;;;;1.43;1.10;;;21.10;68.50;;;;;;5026390;28;20462;-63
2023/12/02 09:05:01;;;;;;;1.67;1.10;;;21.20;68.60;;;;;;5019913;28;20473;-63
2023/12/02 09:07:28;;;;;;;1.83;1.10;;;21.20;68.60;;;;;;5026071;28;20480;-63
2023/12/02 09:09:56;;;;;;;1.60;1.20;;;21.20;68.70;;;;;;5022152;28;20465;-63
2023/12/02 09:12:22;;;;;;;1.60;1.30;;;21.10;68.50;;;;;;5029274;28;20450;-63
2023/12/02 09:15:08;;;;;;;1.50;1.40;;;21.20;68.70;;;;;;5022907;28;21294;-63
2023/12/02 09:18:10;;;;;;;2.27;1.60;;;21.20;68.70;;;;;;5029858;28;20202;-63
2023/12/02 09:20:43;;;;;;;1.47;1.30;;;21.10;68.70;;;;;;5029276;28;20471;-63
2023/12/02 09:23:11;;;;;;;1.33;1.13;;;21.20;68.70;;;;;;5020585;28;20872;-63
2023/12/02 09:25:39;;;;;;;1.43;1.10;;;21.20;68.70;;;;;;5019458;28;20591;-63
2023/12/02 09:28:20;;;;;;;1.87;1.40;;;21.20;68.70;;;;;;5032556;28;20523;-63
2023/12/02 09:30:58;;;;;;;2.17;1.98;;;21.10;68.50;;;;;;5023168;28;20541;-64
2023/12/02 09:33:25;;;;;;;2.30;2.10;;;21.10;67.50;;;;;;5028302;28;20199;-63
2023/12/02 09:35:55;;;;;;;2.37;2.10;;;21.10;67.10;;;;;;5025375;28;20501;-70
2023/12/02 09:38:22;;;;;;;1.77;1.67;;;21.10;67.10;;;;;;5023520;28;20470;-66
2023/12/02 09:41:23;;;;;;;5.10;1.50;;;21.10;67.50;;;;;;5027113;28;20968;-68
2023/12/02 09:44:04;;;;;;;1.30;1.20;;;21.10;67.90;;;;;;5007410;28;20195;-69
2023/12/02 09:46:37;;;;;;;1.30;1.20;;;21.10;68.10;;;;;;5031648;28;20457;-69
2023/12/02 09:49:48;;;;;;;1.30;1.20;;;21.10;68.30;;;;;;5016104;28;20981;-69
2023/12/02 09:52:35;;;;;;;1.33;1.20;;;21.10;68.60;;;;;;5001493;28;20466;-67
2023/12/02 09:55:14;;;;;;;1.80;1.25;;;21.20;68.90;;;;;;5025163;28;20204;-65
2023/12/02 09:57:48;;;;;;;1.30;1.20;;;21.20;69.00;;;;;;5025266;28;20837;-64
2023/12/02 10:00:22;;;;;;;1.50;1.30;;;21.20;69.10;;;;;;5020469;28;20230;-69
2023/12/02 10:03:03;;;;;;;2.17;1.00;;;21.20;69.20;;;;;;5023731;28;20529;-67
2023/12/02 10:05:36;;;;;;;1.73;1.27;;;21.30;69.50;;;;;;5018076;28;22287;-66
2023/12/02 10:08:11;;;;;;;1.20;1.00;;;21.30;69.50;;;;;;5023678;28;20462;-69
2023/12/02 10:10:44;;;;;;;1.30;1.07;;;21.30;69.50;;;;;;5016893;28;20541;-64
2023/12/02 10:13:19;;;;;;;1.27;1.17;;;21.30;69.50;;;;;;5020668;28;20450;-64
2023/12/02 10:15:49;;;;;;;1.40;1.20;;;21.40;69.70;;;;;;5018751;28;20892;-69
2023/12/02 10:18:19;;;;;;;1.40;1.30;;;21.40;69.60;;;;;;5022584;28;20501;-66
2023/12/02 10:20:53;;;;;;;1.90;1.40;;;21.40;69.70;;;;;;5017969;28;20461;-67
2023/12/02 10:23:25;;;;;;;1.00;0.90;;;21.40;69.60;;;;;;5019997;28;20457;-66
2023/12/02 10:26:04;;;;;;;2.07;1.27;;;21.50;69.90;;;;;;5023040;28;24520;-67
2023/12/02 10:28:40;;;;;;;1.33;1.00;;;21.50;69.90;;;;;;5025039;28;20469;-67
2023/12/02 10:31:09;;;;;;;1.50;1.00;;;21.50;69.90;;;;;;5026646;28;20466;-67
2023/12/02 10:33:46;;;;;;;1.17;1.03;;;21.50;70.00;;;;;;5022033;28;20552;-65
2023/12/02 10:36:13;;;;;;;1.70;1.20;;;21.50;69.90;;;;;;5018384;28;20454;-68
2023/12/02 10:38:53;;;;;;;1.23;0.93;;;21.50;70.10;;;;;;5022314;28;21033;-65
2023/12/02 10:41:28;;;;;;;1.40;1.00;;;21.60;70.50;;;;;;5022501;28;20472;-65
2023/12/02 10:43:56;;;;;;;1.27;1.00;;;21.60;71.00;;;;;;5022546;28;20993;-70
2023/12/02 10:46:24;;;;;;;1.87;1.70;;;21.50;70.50;;;;;;5024790;28;20850;-70
2023/12/02 10:48:54;;;;;;;1.20;1.00;;;21.60;70.70;;;;;;5021351;28;21217;-70
2023/12/02 10:51:23;;;;;;;1.20;0.97;;;21.60;70.40;;;;;;5023479;28;20460;-68
2023/12/02 10:53:51;;;;;;;1.27;1.00;;;21.60;70.80;;;;;;5022404;28;20470;-69
2023/12/02 10:56:23;;;;;;;1.50;1.10;;;21.70;70.90;;;;;;5018339;28;24620;-71
2023/12/02 10:58:51;;;;;;;1.40;1.20;;;21.70;70.50;;;;;;5023174;28;21058;-66
2023/12/02 11:01:27;;;;;;;1.50;1.40;;;21.70;70.40;;;;;;5025065;28;20437;-69
2023/12/02 11:04:02;;;;;;;1.20;0.90;;;21.70;70.60;;;;;;5019275;28;21109;-69
2023/12/02 11:06:33;;;;;;;1.20;1.10;;;21.70;70.50;;;;;;5017954;28;20681;-71
2023/12/02 11:09:06;;;;;;;1.40;1.20;;;21.70;70.60;;;;;;5021958;28;21176;-65
2023/12/02 11:11:47;;;;;;;1.60;1.40;;;21.70;70.50;;;;;;5023273;28;21017;-68
2023/12/02 11:14:17;;;;;;;1.10;0.93;;;21.80;70.70;;;;;;5021875;28;20454;-66
2023/12/02 11:16:57;;;;;;;1.63;1.13;;;21.70;70.70;;;;;;4966781;28;20515;-68
2023/12/02 11:19:46;;;;;;;8.03;7.20;;;21.70;71.00;;;;;;5020486;28;20465;-68
2023/12/02 11:22:47;;;;;;;10.50;9.30;;;21.50;58.30;;;;;;5025936;28;20461;-64
2023/12/02 11:25:31;;;;;;;10.80;8.70;;;21.10;54.10;;;;;;5023227;28;20541;-64
2023/12/02 11:28:03;;;;;;;8.63;7.80;;;20.70;50.30;;;;;;5025069;28;20837;-66
2023/12/02 11:30:49;;;;;;;7.07;6.18;;;20.40;47.50;;;;;;5025081;28;20460;-67
2023/12/02 11:33:24;;;;;;;7.30;5.40;;;20.30;51.00;;;;;;5021660;28;20196;-66
2023/12/02 11:36:03;;;;;;;8.30;4.63;;;20.50;53.40;;;;;;5023621;28;20659;-66
2023/12/02 11:38:33;;;;;;;6.68;3.65;;;20.70;54.40;;;;;;5013598;28;20215;-67
2023/12/02 11:41:18;;;;;;;4.28;3.88;;;20.80;54.90;;;;;;5021604;28;20272;-66
2023/12/02 11:43:56;;;;;;;3.08;2.80;;;20.90;55.70;;;;;;5028734;28;20208;-66
2023/12/02 11:46:26;;;;;;;3.67;3.37;;;20.90;56.30;;;;;;5024713;28;20199;-63
2023/12/02 11:49:02;;;;;;;5.60;3.53;;;21.00;56.90;;;;;;5020926;28;20500;-68
2023/12/02 11:51:43;;;;;;;3.40;3.00;;;21.10;57.40;;;;;;5028688;28;20457;-68
2023/12/02 11:54:25;;;;;;;3.30;2.93;;;21.20;57.80;;;;;;5018965;28;20192;-68
2023/12/02 11:57:07;;;;;;;2.83;2.07;;;21.20;58.10;;;;;;5028063;28;20460;-65
2023/12/02 11:59:47;;;;;;;2.37;2.17;;;21.30;58.50;;;;;;5016867;28;20474;-62
2023/12/02 12:02:30;;;;;;;2.47;2.27;;;21.30;58.90;;;;;;5018726;28;20456;-63
2023/12/02 12:05:11;;;;;;;2.27;2.07;;;21.40;59.10;;;;;;5021386;28;20462;-65
2023/12/02 12:07:54;;;;;;;2.70;2.03;;;21.40;60.00;;;;;;5023268;28;20520;-66
2023/12/02 12:10:25;;;;;;;2.23;1.83;;;21.50;59.90;;;;;;5021716;28;20464;-64
2023/12/02 12:12:54;;;;;;;3.30;2.00;;;21.50;60.40;;;;;;5029249;28;20466;-66
2023/12/02 12:15:21;;;;;;;2.27;2.07;;;21.50;61.00;;;;;;5030388;28;20449;-64
2023/12/02 12:17:48;;;;;;;2.53;1.90;;;21.60;61.40;;;;;;5021430;28;20532;-62
2023/12/02 12:20:18;;;;;;;1.80;1.63;;;21.50;61.70;;;;;;5020550;28;20478;-62
2023/12/02 12:22:46;;;;;;;9.10;2.13;;;21.50;61.90;;;;;;5018406;28;20470;-63
2023/12/02 12:25:14;;;;;;;3.30;1.90;;;21.60;62.30;;;;;;5025804;28;20475;-61
2023/12/02 12:27:41;;;;;;;1.87;1.70;;;21.60;62.70;;;;;;5026045;28;20994;-67
2023/12/02 12:30:09;;;;;;;9.67;2.20;;;21.60;63.10;;;;;;5025081;28;20462;-67
2023/12/02 12:32:36;;;;;;;1.97;1.77;;;21.70;63.70;;;;;;5020157;28;22418;-67
2023/12/02 12:35:10;;;;;;;2.13;1.60;;;21.70;63.80;;;;;;5018214;28;20465;-67
2023/12/02 12:37:37;;;;;;;2.70;2.50;;;21.70;64.00;;;;;;5022774;28;20486;-66
2023/12/02 12:40:09;;;;;;;3.33;1.90;;;21.70;64.80;;;;;;5024873;28;20478;-65
2023/12/02 12:42:35;;;;;;;1.67;1.57;;;21.70;64.70;;;;;;5024655;28;21073;-67
2023/12/02 12:45:02;;;;;;;2.10;1.80;;;21.70;65.00;;;;;;5024322;28;20464;-66
2023/12/02 12:47:30;;;;;;;1.63;1.37;;;21.70;65.40;;;;;;5021128;28;20461;-69
2023/12/02 12:50:03;;;;;;;2.30;1.77;;;21.80;65.30;;;;;;5025084;28;20472;-66
2023/12/02 12:52:38;;;;;;;6.77;1.80;;;21.80;65.50;;;;;;5024196;28;20458;-66
2023/12/02 12:55:09;;;;;;;1.73;1.63;;;21.80;66.30;;;;;;5021684;28;20456;-66
2023/12/02 12:57:44;;;;;;;2.07;1.90;;;21.80;65.80;;;;;;5027252;28;20462;-67